Аэропорт: Чебоксары. Чебоксары

ICAO: UWKS

METAR:
2019-11-21 01:30:00
UWKS 210130Z 22002MPS CAVOK M14/M17 Q1051 R06/010060 NOSIG RMK QFE773
METAR:
2019-11-20 22:53:00
TAF UWKS 202253Z 2100/2109 23003MPS 9999 SCT016 TXM14/2100Z TNM16/2104Z